createdAt,value
2022-08-26T00:03:44.231Z,33.8
2022-08-26T00:09:24.612Z,33.8
2022-08-26T00:21:27.660Z,33.8
2022-08-26T00:27:06.324Z,33.8
2022-08-26T00:33:02.902Z,33.7
2022-08-26T00:38:05.451Z,33.7
2022-08-26T00:43:23.609Z,33.7
2022-08-26T00:49:28.559Z,33.7
2022-08-26T00:55:20.590Z,33.6
2022-08-26T01:01:01.750Z,33.6
2022-08-26T01:06:45.834Z,33.6
2022-08-26T01:12:14.109Z,33.6
2022-08-26T01:18:06.479Z,33.6
2022-08-26T01:23:57.886Z,33.6
2022-08-26T01:29:46.233Z,33.6
2022-08-26T01:35:38.894Z,33.6
2022-08-26T01:41:36.081Z,33.6
2022-08-26T01:47:22.990Z,33.5
2022-08-26T01:53:38.113Z,33.5
2022-08-26T01:59:38.565Z,33.5
2022-08-26T02:05:22.650Z,33.4
2022-08-26T02:11:20.003Z,33.4
2022-08-26T02:17:02.236Z,33.4
2022-08-26T02:22:48.977Z,33.3
2022-08-26T02:28:21.501Z,33.3
2022-08-26T02:34:16.444Z,33.2
2022-08-26T02:39:57.838Z,33.3
2022-08-26T02:45:50.469Z,33.1
2022-08-26T02:51:43.254Z,33.1
2022-08-26T02:57:11.006Z,33
2022-08-26T03:03:06.631Z,32.9
2022-08-26T03:08:50.748Z,32.9
2022-08-26T03:14:39.650Z,32.9
2022-08-26T03:25:58.842Z,32.8
2022-08-26T03:31:51.203Z,32.8
2022-08-26T03:37:37.125Z,32.8
2022-08-26T03:43:03.038Z,32.8
2022-08-26T03:48:47.412Z,32.8
2022-08-26T03:54:42.490Z,32.7
2022-08-26T04:00:24.493Z,32.7
2022-08-26T04:06:13.325Z,32.7
2022-08-26T04:11:57.590Z,32.6
2022-08-26T04:17:28.286Z,32.6
2022-08-26T04:22:58.057Z,32.6
2022-08-26T04:28:56.489Z,32.6
2022-08-26T04:34:56.214Z,32.6
2022-08-26T04:46:16.563Z,32.5
2022-08-26T04:52:07.158Z,32.5
2022-08-26T04:58:06.746Z,32.5
2022-08-26T05:03:53.712Z,32.5
2022-08-26T05:09:18.904Z,32.4
2022-08-26T05:15:08.416Z,32.4
2022-08-26T05:21:01.351Z,32.4
2022-08-26T05:26:42.183Z,32.4
2022-08-26T05:32:08.891Z,32.4
2022-08-26T05:38:04.501Z,32.4
2022-08-26T05:43:36.642Z,32.4
2022-08-26T05:49:33.722Z,32.4
2022-08-26T05:55:20.188Z,32.4
2022-08-26T06:01:14.726Z,32.4
2022-08-26T06:07:02.662Z,32.4
2022-08-26T06:13:30.216Z,32.4
2022-08-26T06:19:16.332Z,32.4
2022-08-26T06:25:07.739Z,32.3
2022-08-26T06:31:03.594Z,32.3
2022-08-26T06:36:54.046Z,32.3
2022-08-26T06:42:38.887Z,32.3
2022-08-26T06:48:26.014Z,35.2
2022-08-26T06:54:08.131Z,34.3
2022-08-26T06:59:57.142Z,33.9
2022-08-26T07:05:56.971Z,33.6
2022-08-26T07:11:48.379Z,37.9
2022-08-26T07:17:52.775Z,41.4
2022-08-26T07:23:50.292Z,41.3
2022-08-26T07:29:34.709Z,40.3
2022-08-26T07:35:26.286Z,40
2022-08-26T07:41:24.817Z,39.7
2022-08-26T07:47:24.638Z,40
2022-08-26T07:53:19.398Z,39.9
2022-08-26T07:59:13.887Z,40.1
2022-08-26T08:05:02.710Z,40.1
2022-08-26T08:23:24.776Z,41.2
2022-08-26T08:29:14.512Z,42.3
2022-08-26T08:35:28.338Z,42.4
2022-08-26T08:41:13.519Z,43.2
2022-08-26T08:46:59.655Z,43.4
2022-08-26T08:52:45.256Z,43.9
2022-08-26T08:58:46.857Z,43.9
2022-08-26T09:04:33.717Z,44.7
2022-08-26T09:10:25.281Z,44.6
2022-08-26T09:21:53.286Z,45.9
2022-08-26T09:27:55.356Z,48.9
2022-08-26T09:33:47.262Z,50.5
2022-08-26T09:39:35.304Z,49.7
2022-08-26T09:45:38.505Z,47.7
2022-08-26T09:57:17.407Z,47.4
2022-08-26T10:03:04.295Z,47.3
2022-08-26T10:08:53.084Z,47.3
2022-08-26T10:14:36.536Z,47.4
2022-08-26T10:20:56.802Z,47.5
2022-08-26T10:26:50.478Z,50.4
2022-08-26T10:32:57.814Z,51.4
2022-08-26T10:39:12.681Z,50.2
2022-08-26T10:45:06.097Z,48.6
2022-08-26T10:50:53.921Z,46.1
2022-08-26T11:03:03.648Z,50.1
2022-08-26T11:08:57.731Z,51.9
2022-08-26T11:15:10.167Z,53
2022-08-26T11:21:10.274Z,53.8
2022-08-26T11:27:32.030Z,51.1
2022-08-26T11:33:28.379Z,50.3
2022-08-26T11:39:22.708Z,52.2
2022-08-26T11:45:14.758Z,54.4
2022-08-26T11:50:57.629Z,53.8
2022-08-26T11:56:48.336Z,53.8
2022-08-26T12:02:34.863Z,55.6
2022-08-26T12:08:00.235Z,56.1
2022-08-26T12:13:26.734Z,56.3
2022-08-26T12:19:18.786Z,56.5
2022-08-26T12:25:04.260Z,56.6
2022-08-26T12:31:17.568Z,56.6
2022-08-26T12:37:23.719Z,56.8
2022-08-26T12:42:52.476Z,56.6
2022-08-26T12:48:32.310Z,56.4
2022-08-26T12:59:32.939Z,56.1
2022-08-26T13:05:18.908Z,56.1
2022-08-26T13:11:03.907Z,56.2
2022-08-26T13:16:38.299Z,56.2
2022-08-26T13:22:01.110Z,56.1
2022-08-26T13:27:47.709Z,55.9
2022-08-26T13:33:24.944Z,55.8
2022-08-26T13:39:08.570Z,55.7
2022-08-26T13:45:01.793Z,54.8
2022-08-26T13:50:40.084Z,53.4
2022-08-26T13:56:27.803Z,53.5
2022-08-26T14:02:09.625Z,52.6
2022-08-26T14:07:37.330Z,51.7
2022-08-26T14:13:17.448Z,51.2
2022-08-26T14:19:20.473Z,50.8
2022-08-26T14:25:25.026Z,50.9
2022-08-26T14:31:01.649Z,51.3
2022-08-26T14:36:39.430Z,50.8
2022-08-26T14:42:26.993Z,49.8
2022-08-26T14:48:23.315Z,49.1
2022-08-26T14:54:04.112Z,48.9
2022-08-26T14:59:43.279Z,48.6
2022-08-26T15:05:37.378Z,48.3
2022-08-26T15:11:15.102Z,48
2022-08-26T15:16:49.817Z,47.6
2022-08-26T15:22:26.569Z,47.3
2022-08-26T15:27:54.066Z,46.8
2022-08-26T15:33:36.415Z,46.3
2022-08-26T15:39:23.534Z,45.8
2022-08-26T15:45:26.311Z,45.4
2022-08-26T15:51:29.801Z,44.9
2022-08-26T15:57:19.108Z,44.5
2022-08-26T16:03:06.824Z,44.1
2022-08-26T16:08:46.591Z,43.7
2022-08-26T16:14:45.224Z,43.4
2022-08-26T16:20:27.488Z,43.1
2022-08-26T16:26:26.952Z,42.8
2022-08-26T16:32:09.025Z,42.4
2022-08-26T16:37:58.993Z,42
2022-08-26T16:43:48.187Z,40.4
2022-08-26T16:49:26.765Z,39.4
2022-08-26T16:55:07.135Z,38.8
2022-08-26T17:00:50.066Z,38.3
2022-08-26T17:06:29.181Z,37.9
2022-08-26T17:12:09.890Z,37.6
2022-08-26T17:18:05.517Z,37.4
2022-08-26T17:29:23.906Z,37.1
2022-08-26T17:34:39.757Z,36.9
2022-08-26T17:40:17.830Z,36.9
2022-08-26T17:45:41.206Z,36.8
2022-08-26T17:56:18.792Z,36.7
2022-08-26T18:02:17.155Z,36.6
2022-08-26T18:08:00.721Z,36.6
2022-08-26T18:13:22.255Z,36.6
2022-08-26T18:24:30.483Z,36.5
2022-08-26T18:30:18.718Z,36.4
2022-08-26T18:35:59.317Z,36.4
2022-08-26T18:46:55.043Z,36.4
2022-08-26T18:52:35.474Z,36.3
2022-08-26T18:58:14.005Z,36.3
2022-08-26T19:03:51.853Z,36.3
2022-08-26T19:09:25.577Z,36.2
2022-08-26T19:15:20.932Z,36.1
2022-08-26T19:21:03.527Z,36.1
2022-08-26T19:26:57.543Z,36
2022-08-26T19:32:39.744Z,35.9
2022-08-26T19:38:10.508Z,35.9
2022-08-26T19:49:25.846Z,35.8
2022-08-26T19:55:05.419Z,35.8
2022-08-26T20:00:31.254Z,35.8
2022-08-26T20:06:17.745Z,35.7
2022-08-26T20:12:22.589Z,35.7
2022-08-26T20:18:05.789Z,35.6
2022-08-26T20:24:10.717Z,35.6
2022-08-26T20:29:40.438Z,35.6
2022-08-26T20:35:08.375Z,35.6
2022-08-26T20:46:10.409Z,35.5
2022-08-26T20:57:29.904Z,35.4
2022-08-26T21:03:04.224Z,35.4
2022-08-26T21:08:49.626Z,35.3
2022-08-26T21:14:36.684Z,35.3
2022-08-26T21:20:13.714Z,35.3
2022-08-26T21:25:59.078Z,35.2
2022-08-26T21:31:27.061Z,35.3
2022-08-26T21:37:05.514Z,35.2
2022-08-26T21:42:51.118Z,35.2
2022-08-26T21:48:39.318Z,35.1
2022-08-26T21:54:17.319Z,35.1
2022-08-26T21:59:58.130Z,35.1
2022-08-26T22:05:42.412Z,35.1
2022-08-26T22:10:50.518Z,35
2022-08-26T22:15:56.499Z,35
2022-08-26T22:21:38.722Z,35
2022-08-26T22:27:14.987Z,34.9
2022-08-26T22:33:01.553Z,34.9
2022-08-26T22:38:55.984Z,34.9
2022-08-26T22:44:38.901Z,34.9
2022-08-26T22:50:04.551Z,34.9
2022-08-26T22:55:47.108Z,34.9
2022-08-26T23:01:38.294Z,34.8
2022-08-26T23:07:04.260Z,34.8
2022-08-26T23:12:41.418Z,34.8
2022-08-26T23:23:23.973Z,34.8
2022-08-26T23:28:36.691Z,34.8
2022-08-26T23:33:57.733Z,34.7
2022-08-26T23:39:43.709Z,34.7
2022-08-26T23:45:25.799Z,34.7
2022-08-26T23:56:10.110Z,34.6
